sensor_id;sensor_type;location;lat;lon;timestamp;P1;durP1;ratioP1;P2;durP2;ratioP2
3415;SDS011;1721;51.238;9.562;2023-10-31T00:00:39;7.00;;;2.90;;
3415;SDS011;1721;51.238;9.562;2023-10-31T00:03:05;6.80;;;2.80;;
3415;SDS011;1721;51.238;9.562;2023-10-31T00:05:30;7.73;;;3.40;;
3415;SDS011;1721;51.238;9.562;2023-10-31T00:07:56;7.23;;;3.13;;
3415;SDS011;1721;51.238;9.562;2023-10-31T00:10:22;7.90;;;3.20;;
3415;SDS011;1721;51.238;9.562;2023-10-31T00:12:47;7.07;;;3.07;;
3415;SDS011;1721;51.238;9.562;2023-10-31T00:15:13;8.87;;;3.90;;
3415;SDS011;1721;51.238;9.562;2023-10-31T00:17:38;6.87;;;3.13;;
3415;SDS011;1721;51.238;9.562;2023-10-31T00:20:04;8.40;;;3.30;;
3415;SDS011;1721;51.238;9.562;2023-10-31T00:22:30;7.85;;;3.60;;
3415;SDS011;1721;51.238;9.562;2023-10-31T00:24:55;7.13;;;3.53;;
3415;SDS011;1721;51.238;9.562;2023-10-31T00:27:21;6.90;;;3.60;;
3415;SDS011;1721;51.238;9.562;2023-10-31T00:29:47;9.80;;;3.90;;
3415;SDS011;1721;51.238;9.562;2023-10-31T00:32:12;7.70;;;3.43;;
3415;SDS011;1721;51.238;9.562;2023-10-31T00:34:38;10.90;;;4.00;;
3415;SDS011;1721;51.238;9.562;2023-10-31T00:37:03;7.60;;;4.10;;
3415;SDS011;1721;51.238;9.562;2023-10-31T00:39:29;6.73;;;3.40;;
3415;SDS011;1721;51.238;9.562;2023-10-31T00:41:55;9.50;;;3.43;;
3415;SDS011;1721;51.238;9.562;2023-10-31T00:44:20;5.63;;;3.00;;
3415;SDS011;1721;51.238;9.562;2023-10-31T00:46:46;6.47;;;3.27;;
3415;SDS011;1721;51.238;9.562;2023-10-31T00:49:11;7.53;;;3.50;;
3415;SDS011;1721;51.238;9.562;2023-10-31T00:51:37;10.03;;;3.57;;
3415;SDS011;1721;51.238;9.562;2023-10-31T00:54:02;6.10;;;3.13;;
3415;SDS011;1721;51.238;9.562;2023-10-31T00:56:28;5.87;;;3.13;;
3415;SDS011;1721;51.238;9.562;2023-10-31T00:58:53;5.50;;;2.80;;
3415;SDS011;1721;51.238;9.562;2023-10-31T01:01:19;7.00;;;3.37;;
3415;SDS011;1721;51.238;9.562;2023-10-31T01:03:44;7.37;;;3.43;;
3415;SDS011;1721;51.238;9.562;2023-10-31T01:06:10;6.53;;;3.10;;
3415;SDS011;1721;51.238;9.562;2023-10-31T01:08:35;10.00;;;2.10;;
3415;SDS011;1721;51.238;9.562;2023-10-31T01:11:01;7.97;;;3.43;;
3415;SDS011;1721;51.238;9.562;2023-10-31T01:13:26;10.33;;;3.43;;
3415;SDS011;1721;51.238;9.562;2023-10-31T01:15:52;7.93;;;3.27;;
3415;SDS011;1721;51.238;9.562;2023-10-31T01:18:17;7.07;;;3.20;;
3415;SDS011;1721;51.238;9.562;2023-10-31T01:20:43;6.17;;;3.07;;
3415;SDS011;1721;51.238;9.562;2023-10-31T01:23:09;6.50;;;2.53;;
3415;SDS011;1721;51.238;9.562;2023-10-31T01:25:34;6.13;;;3.30;;
3415;SDS011;1721;51.238;9.562;2023-10-31T01:28:00;6.00;;;2.90;;
3415;SDS011;1721;51.238;9.562;2023-10-31T01:30:25;7.77;;;2.67;;
3415;SDS011;1721;51.238;9.562;2023-10-31T01:32:51;8.37;;;3.73;;
3415;SDS011;1721;51.238;9.562;2023-10-31T01:35:16;8.87;;;3.80;;
3415;SDS011;1721;51.238;9.562;2023-10-31T01:37:42;4.83;;;2.40;;
3415;SDS011;1721;51.238;9.562;2023-10-31T01:40:07;8.47;;;3.83;;
3415;SDS011;1721;51.238;9.562;2023-10-31T01:42:33;10.87;;;3.20;;
3415;SDS011;1721;51.238;9.562;2023-10-31T01:44:59;7.13;;;3.10;;
3415;SDS011;1721;51.238;9.562;2023-10-31T01:47:24;7.13;;;2.90;;
3415;SDS011;1721;51.238;9.562;2023-10-31T01:49:50;6.63;;;3.10;;
3415;SDS011;1721;51.238;9.562;2023-10-31T01:52:17;6.95;;;2.45;;
3415;SDS011;1721;51.238;9.562;2023-10-31T01:54:43;4.20;;;2.37;;
3415;SDS011;1721;51.238;9.562;2023-10-31T01:57:09;4.45;;;2.05;;
3415;SDS011;1721;51.238;9.562;2023-10-31T01:59:36;4.72;;;2.15;;
3415;SDS011;1721;51.238;9.562;2023-10-31T02:02:02;8.07;;;2.50;;
3415;SDS011;1721;51.238;9.562;2023-10-31T02:04:30;6.30;;;2.40;;
3415;SDS011;1721;51.238;9.562;2023-10-31T02:06:55;5.80;;;2.30;;
3415;SDS011;1721;51.238;9.562;2023-10-31T02:09:21;5.10;;;2.40;;
3415;SDS011;1721;51.238;9.562;2023-10-31T02:11:51;10.35;;;2.55;;
3415;SDS011;1721;51.238;9.562;2023-10-31T02:14:17;6.10;;;2.37;;
3415;SDS011;1721;51.238;9.562;2023-10-31T02:16:43;4.05;;;1.80;;
3415;SDS011;1721;51.238;9.562;2023-10-31T02:19:09;7.00;;;2.70;;
3415;SDS011;1721;51.238;9.562;2023-10-31T02:21:38;11.45;;;2.13;;
3415;SDS011;1721;51.238;9.562;2023-10-31T02:24:04;4.28;;;2.00;;
3415;SDS011;1721;51.238;9.562;2023-10-31T02:26:30;4.97;;;2.20;;
3415;SDS011;1721;51.238;9.562;2023-10-31T02:28:57;4.30;;;1.55;;
3415;SDS011;1721;51.238;9.562;2023-10-31T02:31:23;3.83;;;1.47;;
3415;SDS011;1721;51.238;9.562;2023-10-31T02:33:49;3.70;;;1.30;;
3415;SDS011;1721;51.238;9.562;2023-10-31T02:36:14;4.00;;;1.30;;
3415;SDS011;1721;51.238;9.562;2023-10-31T02:38:40;2.50;;;1.00;;
3415;SDS011;1721;51.238;9.562;2023-10-31T02:41:05;2.70;;;0.90;;
3415;SDS011;1721;51.238;9.562;2023-10-31T02:43:31;3.40;;;1.03;;
3415;SDS011;1721;51.238;9.562;2023-10-31T02:45:56;3.03;;;0.80;;
3415;SDS011;1721;51.238;9.562;2023-10-31T02:48:22;2.17;;;0.70;;
3415;SDS011;1721;51.238;9.562;2023-10-31T02:50:49;2.40;;;0.80;;
3415;SDS011;1721;51.238;9.562;2023-10-31T02:53:15;2.97;;;0.90;;
3415;SDS011;1721;51.238;9.562;2023-10-31T02:55:42;2.08;;;0.70;;
3415;SDS011;1721;51.238;9.562;2023-10-31T02:58:08;2.80;;;1.00;;
3415;SDS011;1721;51.238;9.562;2023-10-31T03:00:33;2.20;;;0.80;;
3415;SDS011;1721;51.238;9.562;2023-10-31T03:02:59;3.47;;;1.40;;
3415;SDS011;1721;51.238;9.562;2023-10-31T03:05:25;3.47;;;1.10;;
3415;SDS011;1721;51.238;9.562;2023-10-31T03:07:50;3.57;;;0.93;;
3415;SDS011;1721;51.238;9.562;2023-10-31T03:10:16;2.53;;;1.00;;
3415;SDS011;1721;51.238;9.562;2023-10-31T03:12:42;2.77;;;1.00;;
3415;SDS011;1721;51.238;9.562;2023-10-31T03:15:07;2.43;;;0.90;;
3415;SDS011;1721;51.238;9.562;2023-10-31T03:17:33;2.77;;;1.00;;
3415;SDS011;1721;51.238;9.562;2023-10-31T03:19:58;2.37;;;0.80;;
3415;SDS011;1721;51.238;9.562;2023-10-31T03:22:24;3.43;;;0.77;;
3415;SDS011;1721;51.238;9.562;2023-10-31T03:24:49;2.73;;;1.03;;
3415;SDS011;1721;51.238;9.562;2023-10-31T03:27:15;2.77;;;0.70;;
3415;SDS011;1721;51.238;9.562;2023-10-31T03:29:40;8.33;;;0.90;;
3415;SDS011;1721;51.238;9.562;2023-10-31T03:32:06;4.30;;;1.10;;
3415;SDS011;1721;51.238;9.562;2023-10-31T03:34:32;2.57;;;0.90;;
3415;SDS011;1721;51.238;9.562;2023-10-31T03:36:57;2.90;;;1.10;;
3415;SDS011;1721;51.238;9.562;2023-10-31T03:39:23;3.20;;;1.03;;
3415;SDS011;1721;51.238;9.562;2023-10-31T03:41:48;3.60;;;1.20;;
3415;SDS011;1721;51.238;9.562;2023-10-31T03:44:13;5.40;;;1.47;;
3415;SDS011;1721;51.238;9.562;2023-10-31T03:46:39;4.43;;;1.53;;
3415;SDS011;1721;51.238;9.562;2023-10-31T03:49:05;3.67;;;1.27;;
3415;SDS011;1721;51.238;9.562;2023-10-31T03:51:32;3.20;;;1.55;;
3415;SDS011;1721;51.238;9.562;2023-10-31T03:53:59;4.13;;;1.52;;
3415;SDS011;1721;51.238;9.562;2023-10-31T03:56:24;3.93;;;1.73;;
3415;SDS011;1721;51.238;9.562;2023-10-31T03:58:50;3.63;;;1.50;;
3415;SDS011;1721;51.238;9.562;2023-10-31T04:01:15;4.00;;;1.90;;
3415;SDS011;1721;51.238;9.562;2023-10-31T04:03:41;3.93;;;1.23;;
3415;SDS011;1721;51.238;9.562;2023-10-31T04:06:07;5.13;;;1.55;;
3415;SDS011;1721;51.238;9.562;2023-10-31T04:08:33;7.10;;;1.63;;
3415;SDS011;1721;51.238;9.562;2023-10-31T04:10:58;5.87;;;1.60;;
3415;SDS011;1721;51.238;9.562;2023-10-31T04:13:24;7.57;;;1.87;;
3415;SDS011;1721;51.238;9.562;2023-10-31T04:15:49;3.10;;;1.50;;
3415;SDS011;1721;51.238;9.562;2023-10-31T04:18:15;3.70;;;1.60;;
3415;SDS011;1721;51.238;9.562;2023-10-31T04:20:41;4.25;;;1.42;;
3415;SDS011;1721;51.238;9.562;2023-10-31T04:23:07;2.73;;;1.10;;
3415;SDS011;1721;51.238;9.562;2023-10-31T04:25:33;3.97;;;1.55;;
3415;SDS011;1721;51.238;9.562;2023-10-31T04:27:58;3.40;;;1.50;;
3415;SDS011;1721;51.238;9.562;2023-10-31T04:30:24;3.13;;;1.30;;
3415;SDS011;1721;51.238;9.562;2023-10-31T04:32:49;3.20;;;1.30;;
3415;SDS011;1721;51.238;9.562;2023-10-31T04:35:15;3.67;;;1.60;;
3415;SDS011;1721;51.238;9.562;2023-10-31T04:37:40;3.20;;;1.33;;
3415;SDS011;1721;51.238;9.562;2023-10-31T04:40:06;3.33;;;1.40;;
3415;SDS011;1721;51.238;9.562;2023-10-31T04:42:32;11.70;;;1.55;;
3415;SDS011;1721;51.238;9.562;2023-10-31T04:45:00;3.35;;;1.23;;
3415;SDS011;1721;51.238;9.562;2023-10-31T04:47:26;2.97;;;1.00;;
3415;SDS011;1721;51.238;9.562;2023-10-31T04:49:52;3.27;;;1.07;;
3415;SDS011;1721;51.238;9.562;2023-10-31T04:52:19;2.90;;;0.90;;
3415;SDS011;1721;51.238;9.562;2023-10-31T04:54:45;3.20;;;1.03;;
3415;SDS011;1721;51.238;9.562;2023-10-31T04:57:10;12.13;;;1.13;;
3415;SDS011;1721;51.238;9.562;2023-10-31T04:59:39;3.60;;;1.17;;
3415;SDS011;1721;51.238;9.562;2023-10-31T05:02:04;3.97;;;0.93;;
3415;SDS011;1721;51.238;9.562;2023-10-31T05:04:30;6.20;;;1.10;;
3415;SDS011;1721;51.238;9.562;2023-10-31T05:06:55;2.73;;;1.03;;
3415;SDS011;1721;51.238;9.562;2023-10-31T05:09:22;2.43;;;0.80;;
3415;SDS011;1721;51.238;9.562;2023-10-31T05:11:48;2.85;;;1.10;;
3415;SDS011;1721;51.238;9.562;2023-10-31T05:14:14;5.10;;;1.57;;
3415;SDS011;1721;51.238;9.562;2023-10-31T05:16:42;8.17;;;1.37;;
3415;SDS011;1721;51.238;9.562;2023-10-31T05:19:08;4.00;;;1.00;;
3415;SDS011;1721;51.238;9.562;2023-10-31T05:21:34;3.20;;;1.08;;
3415;SDS011;1721;51.238;9.562;2023-10-31T05:24:00;3.30;;;1.30;;
3415;SDS011;1721;51.238;9.562;2023-10-31T05:26:26;5.50;;;1.30;;
3415;SDS011;1721;51.238;9.562;2023-10-31T05:28:53;5.50;;;1.35;;
3415;SDS011;1721;51.238;9.562;2023-10-31T05:31:19;3.63;;;1.10;;
3415;SDS011;1721;51.238;9.562;2023-10-31T05:33:44;4.60;;;1.30;;
3415;SDS011;1721;51.238;9.562;2023-10-31T05:36:19;5.10;;;1.20;;
3415;SDS011;1721;51.238;9.562;2023-10-31T05:38:46;4.20;;;1.10;;
3415;SDS011;1721;51.238;9.562;2023-10-31T05:41:12;3.75;;;1.00;;
3415;SDS011;1721;51.238;9.562;2023-10-31T05:43:38;3.70;;;1.00;;
3415;SDS011;1721;51.238;9.562;2023-10-31T05:46:04;4.23;;;0.80;;
3415;SDS011;1721;51.238;9.562;2023-10-31T05:48:30;3.28;;;0.93;;
3415;SDS011;1721;51.238;9.562;2023-10-31T05:50:56;5.28;;;1.30;;
3415;SDS011;1721;51.238;9.562;2023-10-31T05:53:22;3.13;;;1.10;;
3415;SDS011;1721;51.238;9.562;2023-10-31T05:55:47;5.87;;;1.13;;
3415;SDS011;1721;51.238;9.562;2023-10-31T05:58:13;3.07;;;1.13;;
3415;SDS011;1721;51.238;9.562;2023-10-31T06:00:38;3.90;;;1.20;;
3415;SDS011;1721;51.238;9.562;2023-10-31T06:03:04;2.83;;;1.10;;
3415;SDS011;1721;51.238;9.562;2023-10-31T06:05:30;2.97;;;0.90;;
3415;SDS011;1721;51.238;9.562;2023-10-31T06:07:55;3.77;;;1.00;;
3415;SDS011;1721;51.238;9.562;2023-10-31T06:10:21;2.73;;;0.90;;
3415;SDS011;1721;51.238;9.562;2023-10-31T06:12:46;3.10;;;1.20;;
3415;SDS011;1721;51.238;9.562;2023-10-31T06:15:12;5.00;;;1.00;;
3415;SDS011;1721;51.238;9.562;2023-10-31T06:17:38;5.60;;;1.00;;
3415;SDS011;1721;51.238;9.562;2023-10-31T06:20:04;5.28;;;1.15;;
3415;SDS011;1721;51.238;9.562;2023-10-31T06:22:32;4.65;;;1.20;;
3415;SDS011;1721;51.238;9.562;2023-10-31T06:24:57;5.60;;;1.00;;
3415;SDS011;1721;51.238;9.562;2023-10-31T06:27:23;4.40;;;0.90;;
3415;SDS011;1721;51.238;9.562;2023-10-31T06:29:48;2.20;;;0.70;;
3415;SDS011;1721;51.238;9.562;2023-10-31T06:32:14;2.80;;;0.87;;
3415;SDS011;1721;51.238;9.562;2023-10-31T06:34:40;2.20;;;0.70;;
3415;SDS011;1721;51.238;9.562;2023-10-31T06:37:05;3.10;;;0.90;;
3415;SDS011;1721;51.238;9.562;2023-10-31T06:39:31;10.23;;;0.83;;
3415;SDS011;1721;51.238;9.562;2023-10-31T06:41:57;5.40;;;0.90;;
3415;SDS011;1721;51.238;9.562;2023-10-31T06:44:23;7.40;;;1.10;;
3415;SDS011;1721;51.238;9.562;2023-10-31T06:46:48;2.57;;;0.70;;
3415;SDS011;1721;51.238;9.562;2023-10-31T06:49:14;4.53;;;0.70;;
3415;SDS011;1721;51.238;9.562;2023-10-31T06:51:40;8.77;;;0.70;;
3415;SDS011;1721;51.238;9.562;2023-10-31T06:54:06;8.10;;;1.30;;
3415;SDS011;1721;51.238;9.562;2023-10-31T06:56:32;6.70;;;1.00;;
3415;SDS011;1721;51.238;9.562;2023-10-31T06:58:57;2.47;;;0.70;;
3415;SDS011;1721;51.238;9.562;2023-10-31T07:01:23;12.97;;;1.40;;
3415;SDS011;1721;51.238;9.562;2023-10-31T07:03:49;2.40;;;0.83;;
3415;SDS011;1721;51.238;9.562;2023-10-31T07:06:15;8.60;;;0.73;;
3415;SDS011;1721;51.238;9.562;2023-10-31T07:08:40;3.20;;;0.80;;
3415;SDS011;1721;51.238;9.562;2023-10-31T07:11:06;3.23;;;0.70;;
3415;SDS011;1721;51.238;9.562;2023-10-31T07:13:31;2.90;;;0.80;;
3415;SDS011;1721;51.238;9.562;2023-10-31T07:15:57;3.53;;;0.70;;
3415;SDS011;1721;51.238;9.562;2023-10-31T07:18:22;3.90;;;0.73;;
3415;SDS011;1721;51.238;9.562;2023-10-31T07:20:48;2.20;;;0.70;;
3415;SDS011;1721;51.238;9.562;2023-10-31T07:23:13;2.93;;;0.70;;
3415;SDS011;1721;51.238;9.562;2023-10-31T07:25:39;1.90;;;0.60;;
3415;SDS011;1721;51.238;9.562;2023-10-31T07:28:05;2.00;;;0.67;;
3415;SDS011;1721;51.238;9.562;2023-10-31T07:30:30;1.90;;;0.60;;
3415;SDS011;1721;51.238;9.562;2023-10-31T07:32:56;2.70;;;0.60;;
3415;SDS011;1721;51.238;9.562;2023-10-31T07:35:21;4.10;;;0.63;;
3415;SDS011;1721;51.238;9.562;2023-10-31T07:37:47;3.77;;;1.00;;
3415;SDS011;1721;51.238;9.562;2023-10-31T07:40:13;2.63;;;0.77;;
3415;SDS011;1721;51.238;9.562;2023-10-31T07:42:39;2.53;;;0.60;;
3415;SDS011;1721;51.238;9.562;2023-10-31T07:45:04;2.13;;;0.70;;
3415;SDS011;1721;51.238;9.562;2023-10-31T07:47:30;2.08;;;0.60;;
3415;SDS011;1721;51.238;9.562;2023-10-31T07:49:56;1.93;;;0.50;;
3415;SDS011;1721;51.238;9.562;2023-10-31T07:52:22;2.40;;;0.70;;
3415;SDS011;1721;51.238;9.562;2023-10-31T07:54:47;2.70;;;0.70;;
3415;SDS011;1721;51.238;9.562;2023-10-31T07:57:13;4.43;;;0.60;;
3415;SDS011;1721;51.238;9.562;2023-10-31T07:59:39;2.40;;;0.60;;
3415;SDS011;1721;51.238;9.562;2023-10-31T08:02:05;2.25;;;0.60;;
3415;SDS011;1721;51.238;9.562;2023-10-31T08:04:31;1.88;;;0.50;;
3415;SDS011;1721;51.238;9.562;2023-10-31T08:06:57;2.33;;;0.60;;
3415;SDS011;1721;51.238;9.562;2023-10-31T08:09:22;7.93;;;1.20;;
3415;SDS011;1721;51.238;9.562;2023-10-31T08:11:48;2.20;;;0.73;;
3415;SDS011;1721;51.238;9.562;2023-10-31T08:14:13;2.30;;;0.70;;
3415;SDS011;1721;51.238;9.562;2023-10-31T08:16:40;2.00;;;0.70;;
3415;SDS011;1721;51.238;9.562;2023-10-31T08:19:06;2.00;;;0.68;;
3415;SDS011;1721;51.238;9.562;2023-10-31T08:21:32;2.13;;;0.60;;
3415;SDS011;1721;51.238;9.562;2023-10-31T08:24:03;2.80;;;0.70;;
3415;SDS011;1721;51.238;9.562;2023-10-31T08:26:32;3.20;;;0.73;;
3415;SDS011;1721;51.238;9.562;2023-10-31T08:28:59;3.05;;;0.68;;
3415;SDS011;1721;51.238;9.562;2023-10-31T08:31:24;2.03;;;0.70;;
3415;SDS011;1721;51.238;9.562;2023-10-31T08:33:50;2.10;;;0.70;;
3415;SDS011;1721;51.238;9.562;2023-10-31T08:36:16;2.17;;;0.60;;
3415;SDS011;1721;51.238;9.562;2023-10-31T08:38:41;2.83;;;0.60;;
3415;SDS011;1721;51.238;9.562;2023-10-31T08:41:07;2.33;;;0.60;;
3415;SDS011;1721;51.238;9.562;2023-10-31T08:43:32;2.50;;;0.90;;
3415;SDS011;1721;51.238;9.562;2023-10-31T08:45:58;3.17;;;0.70;;
3415;SDS011;1721;51.238;9.562;2023-10-31T08:48:23;2.87;;;0.70;;
3415;SDS011;1721;51.238;9.562;2023-10-31T08:50:49;2.40;;;0.80;;
3415;SDS011;1721;51.238;9.562;2023-10-31T08:53:15;2.83;;;0.90;;
3415;SDS011;1721;51.238;9.562;2023-10-31T08:55:41;2.40;;;0.80;;
3415;SDS011;1721;51.238;9.562;2023-10-31T08:58:10;3.88;;;0.80;;
3415;SDS011;1721;51.238;9.562;2023-10-31T09:00:37;2.30;;;0.73;;
3415;SDS011;1721;51.238;9.562;2023-10-31T09:03:03;2.40;;;0.70;;
3415;SDS011;1721;51.238;9.562;2023-10-31T09:05:28;3.47;;;1.10;;
3415;SDS011;1721;51.238;9.562;2023-10-31T09:07:54;3.47;;;1.00;;
3415;SDS011;1721;51.238;9.562;2023-10-31T09:10:20;7.03;;;1.00;;
3415;SDS011;1721;51.238;9.562;2023-10-31T09:12:45;2.90;;;0.93;;
3415;SDS011;1721;51.238;9.562;2023-10-31T09:15:11;3.87;;;0.80;;
3415;SDS011;1721;51.238;9.562;2023-10-31T09:17:38;4.68;;;0.90;;
3415;SDS011;1721;51.238;9.562;2023-10-31T09:20:03;2.97;;;1.10;;
3415;SDS011;1721;51.238;9.562;2023-10-31T09:22:30;4.78;;;0.82;;
3415;SDS011;1721;51.238;9.562;2023-10-31T09:24:55;3.60;;;1.03;;
3415;SDS011;1721;51.238;9.562;2023-10-31T09:27:21;3.50;;;1.20;;
3415;SDS011;1721;51.238;9.562;2023-10-31T09:29:46;2.57;;;0.90;;
3415;SDS011;1721;51.238;9.562;2023-10-31T09:32:12;3.53;;;0.93;;
3415;SDS011;1721;51.238;9.562;2023-10-31T09:34:38;3.63;;;1.20;;
3415;SDS011;1721;51.238;9.562;2023-10-31T09:37:04;3.00;;;1.00;;
3415;SDS011;1721;51.238;9.562;2023-10-31T09:39:29;3.60;;;1.00;;
3415;SDS011;1721;51.238;9.562;2023-10-31T09:41:55;3.10;;;1.13;;
3415;SDS011;1721;51.238;9.562;2023-10-31T09:44:21;3.43;;;0.87;;
3415;SDS011;1721;51.238;9.562;2023-10-31T09:46:46;5.43;;;1.30;;
3415;SDS011;1721;51.238;9.562;2023-10-31T09:49:12;4.80;;;1.10;;
3415;SDS011;1721;51.238;9.562;2023-10-31T09:51:38;6.83;;;1.17;;
3415;SDS011;1721;51.238;9.562;2023-10-31T09:54:04;4.93;;;1.20;;
3415;SDS011;1721;51.238;9.562;2023-10-31T09:56:31;3.13;;;1.33;;
3415;SDS011;1721;51.238;9.562;2023-10-31T09:58:59;3.50;;;1.00;;
3415;SDS011;1721;51.238;9.562;2023-10-31T10:01:25;2.78;;;1.00;;
3415;SDS011;1721;51.238;9.562;2023-10-31T10:03:51;3.40;;;1.20;;
3415;SDS011;1721;51.238;9.562;2023-10-31T10:06:18;3.58;;;1.10;;
3415;SDS011;1721;51.238;9.562;2023-10-31T10:08:46;3.03;;;0.95;;
3415;SDS011;1721;51.238;9.562;2023-10-31T10:11:11;2.57;;;0.87;;
3415;SDS011;1721;51.238;9.562;2023-10-31T10:13:37;2.53;;;0.77;;
3415;SDS011;1721;51.238;9.562;2023-10-31T10:16:03;5.17;;;0.97;;
3415;SDS011;1721;51.238;9.562;2023-10-31T10:18:30;3.03;;;0.70;;
3415;SDS011;1721;51.238;9.562;2023-10-31T10:20:58;3.22;;;0.80;;
3415;SDS011;1721;51.238;9.562;2023-10-31T10:23:25;2.90;;;0.90;;
3415;SDS011;1721;51.238;9.562;2023-10-31T10:25:51;3.03;;;1.00;;
3415;SDS011;1721;51.238;9.562;2023-10-31T10:28:17;2.65;;;0.90;;
3415;SDS011;1721;51.238;9.562;2023-10-31T10:30:46;3.20;;;1.00;;
3415;SDS011;1721;51.238;9.562;2023-10-31T10:33:13;2.60;;;0.82;;
3415;SDS011;1721;51.238;9.562;2023-10-31T10:35:39;3.58;;;1.33;;
3415;SDS011;1721;51.238;9.562;2023-10-31T10:38:15;2.80;;;0.83;;
3415;SDS011;1721;51.238;9.562;2023-10-31T10:40:44;2.55;;;0.77;;
3415;SDS011;1721;51.238;9.562;2023-10-31T10:43:23;3.88;;;0.80;;
3415;SDS011;1721;51.238;9.562;2023-10-31T10:45:52;5.20;;;0.88;;
3415;SDS011;1721;51.238;9.562;2023-10-31T10:48:20;2.78;;;0.88;;
3415;SDS011;1721;51.238;9.562;2023-10-31T10:50:49;2.20;;;0.65;;
3415;SDS011;1721;51.238;9.562;2023-10-31T10:53:26;2.83;;;0.77;;
3415;SDS011;1721;51.238;9.562;2023-10-31T10:56:02;3.95;;;0.80;;
3415;SDS011;1721;51.238;9.562;2023-10-31T10:58:36;6.07;;;0.90;;
3415;SDS011;1721;51.238;9.562;2023-10-31T11:01:06;2.83;;;0.90;;
3415;SDS011;1721;51.238;9.562;2023-10-31T11:03:33;2.65;;;0.90;;
3415;SDS011;1721;51.238;9.562;2023-10-31T11:05:59;3.50;;;0.90;;
3415;SDS011;1721;51.238;9.562;2023-10-31T11:08:25;9.77;;;1.00;;
3415;SDS011;1721;51.238;9.562;2023-10-31T11:10:52;2.40;;;0.70;;
3415;SDS011;1721;51.238;9.562;2023-10-31T11:13:19;2.30;;;0.80;;
3415;SDS011;1721;51.238;9.562;2023-10-31T11:15:45;2.67;;;0.70;;
3415;SDS011;1721;51.238;9.562;2023-10-31T11:18:12;3.15;;;0.80;;
3415;SDS011;1721;51.238;9.562;2023-10-31T11:20:38;3.87;;;0.77;;
3415;SDS011;1721;51.238;9.562;2023-10-31T11:23:04;3.88;;;0.82;;
3415;SDS011;1721;51.238;9.562;2023-10-31T11:25:31;4.05;;;0.80;;
3415;SDS011;1721;51.238;9.562;2023-10-31T11:28:11;2.40;;;0.60;;
3415;SDS011;1721;51.238;9.562;2023-10-31T11:30:40;2.42;;;0.85;;
3415;SDS011;1721;51.238;9.562;2023-10-31T11:33:13;2.03;;;0.60;;
3415;SDS011;1721;51.238;9.562;2023-10-31T11:35:40;2.10;;;0.68;;
3415;SDS011;1721;51.238;9.562;2023-10-31T11:38:07;2.83;;;0.70;;
3415;SDS011;1721;51.238;9.562;2023-10-31T11:40:34;2.95;;;0.95;;
3415;SDS011;1721;51.238;9.562;2023-10-31T11:43:04;7.00;;;1.15;;
3415;SDS011;1721;51.238;9.562;2023-10-31T11:48:09;4.25;;;0.70;;
3415;SDS011;1721;51.238;9.562;2023-10-31T11:50:36;2.60;;;0.90;;
3415;SDS011;1721;51.238;9.562;2023-10-31T11:55:32;11.43;;;0.85;;
3415;SDS011;1721;51.238;9.562;2023-10-31T11:58:11;2.80;;;0.80;;
3415;SDS011;1721;51.238;9.562;2023-10-31T12:00:40;4.28;;;0.70;;
3415;SDS011;1721;51.238;9.562;2023-10-31T12:03:06;2.97;;;0.80;;
3415;SDS011;1721;51.238;9.562;2023-10-31T12:05:31;2.80;;;1.00;;
3415;SDS011;1721;51.238;9.562;2023-10-31T12:07:57;4.10;;;0.90;;
3415;SDS011;1721;51.238;9.562;2023-10-31T12:10:23;2.40;;;0.80;;
3415;SDS011;1721;51.238;9.562;2023-10-31T12:12:50;2.10;;;0.60;;
3415;SDS011;1721;51.238;9.562;2023-10-31T12:15:16;2.20;;;0.70;;
3415;SDS011;1721;51.238;9.562;2023-10-31T12:17:41;3.50;;;0.90;;
3415;SDS011;1721;51.238;9.562;2023-10-31T12:20:08;2.07;;;0.60;;
3415;SDS011;1721;51.238;9.562;2023-10-31T12:22:34;2.70;;;0.80;;
3415;SDS011;1721;51.238;9.562;2023-10-31T12:25:03;6.78;;;0.98;;
3415;SDS011;1721;51.238;9.562;2023-10-31T12:27:46;3.50;;;0.80;;
3415;SDS011;1721;51.238;9.562;2023-10-31T12:30:18;3.22;;;1.17;;
3415;SDS011;1721;51.238;9.562;2023-10-31T12:32:46;3.20;;;0.82;;
3415;SDS011;1721;51.238;9.562;2023-10-31T12:35:20;3.88;;;0.90;;
3415;SDS011;1721;51.238;9.562;2023-10-31T12:37:47;2.40;;;0.83;;
3415;SDS011;1721;51.238;9.562;2023-10-31T12:40:16;3.08;;;0.98;;
3415;SDS011;1721;51.238;9.562;2023-10-31T12:42:43;7.45;;;1.20;;
3415;SDS011;1721;51.238;9.562;2023-10-31T12:45:09;6.57;;;1.23;;
3415;SDS011;1721;51.238;9.562;2023-10-31T12:47:36;3.45;;;0.82;;
3415;SDS011;1721;51.238;9.562;2023-10-31T12:50:36;2.63;;;0.90;;
3415;SDS011;1721;51.238;9.562;2023-10-31T12:52:55;5.47;;;1.50;;
3415;SDS011;1721;51.238;9.562;2023-10-31T12:55:23;5.40;;;1.20;;
3415;SDS011;1721;51.238;9.562;2023-10-31T12:57:50;4.88;;;1.17;;
3415;SDS011;1721;51.238;9.562;2023-10-31T13:00:16;3.38;;;1.00;;
3415;SDS011;1721;51.238;9.562;2023-10-31T13:02:50;10.55;;;1.13;;
3415;SDS011;1721;51.238;9.562;2023-10-31T13:05:17;6.32;;;1.20;;
3415;SDS011;1721;51.238;9.562;2023-10-31T13:07:49;10.63;;;1.63;;
3415;SDS011;1721;51.238;9.562;2023-10-31T13:10:20;5.03;;;1.23;;
3415;SDS011;1721;51.238;9.562;2023-10-31T13:12:50;3.10;;;1.20;;
3415;SDS011;1721;51.238;9.562;2023-10-31T13:15:17;4.00;;;1.52;;
3415;SDS011;1721;51.238;9.562;2023-10-31T13:17:50;9.88;;;1.65;;
3415;SDS011;1721;51.238;9.562;2023-10-31T13:20:18;6.15;;;1.55;;
3415;SDS011;1721;51.238;9.562;2023-10-31T13:22:44;9.60;;;1.40;;
3415;SDS011;1721;51.238;9.562;2023-10-31T13:25:10;3.13;;;1.30;;
3415;SDS011;1721;51.238;9.562;2023-10-31T13:27:38;3.97;;;1.67;;
3415;SDS011;1721;51.238;9.562;2023-10-31T13:30:07;9.52;;;1.73;;
3415;SDS011;1721;51.238;9.562;2023-10-31T13:32:33;4.05;;;1.50;;
3415;SDS011;1721;51.238;9.562;2023-10-31T13:35:00;3.78;;;1.25;;
3415;SDS011;1721;51.238;9.562;2023-10-31T13:37:25;9.60;;;1.60;;
3415;SDS011;1721;51.238;9.562;2023-10-31T13:39:51;4.97;;;1.60;;
3415;SDS011;1721;51.238;9.562;2023-10-31T13:42:16;3.93;;;1.20;;
3415;SDS011;1721;51.238;9.562;2023-10-31T13:44:42;4.30;;;1.43;;
3415;SDS011;1721;51.238;9.562;2023-10-31T13:47:08;6.30;;;1.58;;
3415;SDS011;1721;51.238;9.562;2023-10-31T13:49:34;4.80;;;1.40;;
3415;SDS011;1721;51.238;9.562;2023-10-31T13:52:01;4.20;;;1.48;;
3415;SDS011;1721;51.238;9.562;2023-10-31T13:54:26;3.57;;;1.27;;
3415;SDS011;1721;51.238;9.562;2023-10-31T13:56:53;3.10;;;1.20;;
3415;SDS011;1721;51.238;9.562;2023-10-31T13:59:18;5.27;;;1.30;;
3415;SDS011;1721;51.238;9.562;2023-10-31T14:01:44;11.97;;;1.40;;
3415;SDS011;1721;51.238;9.562;2023-10-31T14:04:12;4.90;;;1.30;;
3415;SDS011;1721;51.238;9.562;2023-10-31T14:06:38;4.50;;;1.50;;
3415;SDS011;1721;51.238;9.562;2023-10-31T14:09:05;5.90;;;1.58;;
3415;SDS011;1721;51.238;9.562;2023-10-31T14:11:32;4.15;;;1.52;;
3415;SDS011;1721;51.238;9.562;2023-10-31T14:13:58;4.25;;;1.98;;
3415;SDS011;1721;51.238;9.562;2023-10-31T14:16:28;9.63;;;1.50;;
3415;SDS011;1721;51.238;9.562;2023-10-31T14:18:54;3.72;;;1.50;;
3415;SDS011;1721;51.238;9.562;2023-10-31T14:21:20;3.83;;;1.60;;
3415;SDS011;1721;51.238;9.562;2023-10-31T14:23:46;3.20;;;1.30;;
3415;SDS011;1721;51.238;9.562;2023-10-31T14:26:18;5.55;;;1.60;;
3415;SDS011;1721;51.238;9.562;2023-10-31T14:28:51;3.90;;;1.80;;
3415;SDS011;1721;51.238;9.562;2023-10-31T14:31:17;4.00;;;1.50;;
3415;SDS011;1721;51.238;9.562;2023-10-31T14:33:42;9.90;;;1.90;;
3415;SDS011;1721;51.238;9.562;2023-10-31T14:36:09;4.90;;;1.42;;
3415;SDS011;1721;51.238;9.562;2023-10-31T14:38:38;7.57;;;1.83;;
3415;SDS011;1721;51.238;9.562;2023-10-31T14:41:04;5.97;;;1.85;;
3415;SDS011;1721;51.238;9.562;2023-10-31T14:43:29;8.10;;;1.83;;
3415;SDS011;1721;51.238;9.562;2023-10-31T14:45:55;4.23;;;1.50;;
3415;SDS011;1721;51.238;9.562;2023-10-31T14:48:22;14.45;;;2.13;;
3415;SDS011;1721;51.238;9.562;2023-10-31T14:50:47;4.57;;;1.50;;
3415;SDS011;1721;51.238;9.562;2023-10-31T14:53:13;6.43;;;1.70;;
3415;SDS011;1721;51.238;9.562;2023-10-31T14:55:39;6.50;;;1.50;;
3415;SDS011;1721;51.238;9.562;2023-10-31T14:58:05;4.17;;;1.60;;
3415;SDS011;1721;51.238;9.562;2023-10-31T15:00:33;8.75;;;2.30;;
3415;SDS011;1721;51.238;9.562;2023-10-31T15:02:59;3.80;;;1.30;;
3415;SDS011;1721;51.238;9.562;2023-10-31T15:05:24;11.07;;;2.00;;
3415;SDS011;1721;51.238;9.562;2023-10-31T15:07:50;5.87;;;1.60;;
3415;SDS011;1721;51.238;9.562;2023-10-31T15:10:17;4.38;;;1.58;;
3415;SDS011;1721;51.238;9.562;2023-10-31T15:12:45;10.13;;;1.50;;
3415;SDS011;1721;51.238;9.562;2023-10-31T15:15:11;13.52;;;1.77;;